Time;durP1;ratioP1;P1;durP2;ratioP2;P2;SDS_P1;SDS_P2;PMS_P1;PMS_P2;Temp;Humidity;BMP_temperature;BMP_pressure;BME280_temperature;BME280_humidity;BME280_pressure;Samples;Min_cycle;Max_cycle;Signal;HPM_P1;HPM_P2
2022/06/06 00:02:23;;;;;;;;;;;;;;;;;;5114191;27;19923;-88
2022/06/06 00:04:49;;;;;;;;;;;;;;;;;;5126168;27;19926;-89
2022/06/06 00:07:15;;;;;;;;;;;;;;;;;;5123726;27;19971;-89
2022/06/06 00:09:41;;;;;;;;;;;;;;;;;;5123542;27;19931;-88
2022/06/06 00:12:07;;;;;;;;;;;;;;;;;;5126218;27;19932;-89
2022/06/06 00:14:33;;;;;;;;;;;;;;;;;;5127371;27;19939;-90
2022/06/06 00:16:59;;;;;;;;;;;;;;;;;;5135869;27;20377;-88
2022/06/06 00:19:25;;;;;;;;;;;;;;;;;;5123189;27;19924;-89
2022/06/06 00:21:51;;;;;;;;;;;;;;;;;;5125376;27;19950;-87
2022/06/06 00:24:17;;;;;;;;;;;;;;;;;;5125416;27;19931;-87
2022/06/06 00:26:43;;;;;;;;;;;;;;;;;;5116006;27;19931;-88
2022/06/06 00:29:09;;;;;;;;;;;;;;;;;;5121098;27;19924;-90
2022/06/06 00:37:05;;;;;;;;;;;;;;;;;;5131426;27;19924;-87
2022/06/06 00:39:37;;;;;;;;;;;;;;;;;;5116251;27;19927;-88
2022/06/06 00:42:03;;;;;;;;;;;;;;;;;;5106678;28;19927;-88
2022/06/06 00:44:29;;;;;;;;;;;;;;;;;;5109298;28;19993;-87
2022/06/06 00:46:55;;;;;;;;;;;;;;;;;;5129075;27;20382;-86
2022/06/06 00:49:22;;;;;;;;;;;;;;;;;;5124939;27;19995;-90
2022/06/06 00:51:48;;;;;;;;;;;;;;;;;;5113343;28;20374;-88
2022/06/06 00:54:14;;;;;;;;;;;;;;;;;;5127396;27;19931;-90
2022/06/06 00:56:40;;;;;;;;;;;;;;;;;;5119870;27;20374;-89
2022/06/06 00:59:06;;;;;;;;;;;;;;;;;;5107514;27;19955;-91
2022/06/06 01:01:34;;;;;;;;;;;;;;;;;;5111079;27;19923;-88
2022/06/06 01:04:00;;;;;;;;;;;;;;;;;;5114180;27;20010;-89
2022/06/06 01:06:26;;;;;;;;;;;;;;;;;;5113527;27;20019;-90
2022/06/06 01:08:52;;;;;;;;;;;;;;;;;;5128768;27;19969;-87
2022/06/06 01:11:18;;;;;;;;;;;;;;;;;;5114341;27;19923;-87
2022/06/06 01:13:45;;;;;;;;;;;;;;;;;;5110271;27;19924;-87
2022/06/06 01:16:10;;;;;;;;;;;;;;;;;;5110117;27;19934;-88
2022/06/06 01:18:36;;;;;;;;;;;;;;;;;;5108947;27;19924;-87
2022/06/06 01:21:02;;;;;;;;;;;;;;;;;;5128747;27;20386;-88
2022/06/06 01:23:28;;;;;;;;;;;;;;;;;;5110965;27;19928;-88
2022/06/06 01:25:54;;;;;;;;;;;;;;;;;;5110540;27;19931;-87
2022/06/06 01:28:20;;;;;;;;;;;;;;;;;;5123771;27;19977;-86
2022/06/06 01:30:46;;;;;;;;;;;;;;;;;;5132233;27;19923;-86
2022/06/06 01:33:12;;;;;;;;;;;;;;;;;;5106704;27;19928;-89
2022/06/06 01:35:39;;;;;;;;;;;;;;;;;;5112348;27;20030;-89
2022/06/06 01:38:05;;;;;;;;;;;;;;;;;;5112853;27;20362;-87
2022/06/06 01:40:31;;;;;;;;;;;;;;;;;;5114334;27;19923;-88
2022/06/06 01:42:57;;;;;;;;;;;;;;;;;;5126990;27;20273;-89
2022/06/06 01:45:23;;;;;;;;;;;;;;;;;;5122493;27;19965;-87
2022/06/06 01:47:49;;;;;;;;;;;;;;;;;;5113232;27;19966;-87
2022/06/06 01:50:15;;;;;;;;;;;;;;;;;;5108574;27;19957;-88
2022/06/06 01:52:41;;;;;;;;;;;;;;;;;;5114484;27;19959;-89
2022/06/06 01:55:07;;;;;;;;;;;;;;;;;;5112793;27;20018;-88
2022/06/06 01:57:33;;;;;;;;;;;;;;;;;;5133582;27;19923;-89
2022/06/06 01:59:59;;;;;;;;;;;;;;;;;;5130876;27;19923;-88
2022/06/06 02:02:25;;;;;;;;;;;;;;;;;;5125370;27;20023;-90
2022/06/06 02:04:51;;;;;;;;;;;;;;;;;;5111084;27;19931;-88
2022/06/06 02:07:16;;;;;;;;;;;;;;;;;;5112964;27;19927;-89
2022/06/06 02:09:42;;;;;;;;;;;;;;;;;;5127827;27;19923;-88
2022/06/06 02:12:10;;;;;;;;;;;;;;;;;;5112007;27;20374;-87
2022/06/06 02:14:36;;;;;;;;;;;;;;;;;;5118780;27;19923;-86
2022/06/06 02:17:02;;;;;;;;;;;;;;;;;;5105484;27;19938;-90
2022/06/06 02:19:28;;;;;;;;;;;;;;;;;;5107915;27;19923;-87
2022/06/06 02:21:54;;;;;;;;;;;;;;;;;;5106493;27;19923;-86
2022/06/06 02:24:21;;;;;;;;;;;;;;;;;;5108388;27;19924;-86
2022/06/06 02:26:47;;;;;;;;;;;;;;;;;;5118407;27;19927;-89
2022/06/06 02:29:13;;;;;;;;;;;;;;;;;;5107459;27;19980;-88
2022/06/06 02:31:39;;;;;;;;;;;;;;;;;;5110301;27;19919;-86
2022/06/06 02:34:05;;;;;;;;;;;;;;;;;;5109868;27;19931;-86
2022/06/06 02:36:31;;;;;;;;;;;;;;;;;;5120739;27;20286;-86
2022/06/06 02:38:57;;;;;;;;;;;;;;;;;;5104971;27;19938;-87
2022/06/06 02:41:25;;;;;;;;;;;;;;;;;;5105536;27;20354;-87
2022/06/06 02:43:52;;;;;;;;;;;;;;;;;;5110424;27;19928;-86
2022/06/06 02:46:18;;;;;;;;;;;;;;;;;;5112505;27;20025;-86
2022/06/06 02:48:44;;;;;;;;;;;;;;;;;;5104423;27;19946;-85
2022/06/06 02:51:10;;;;;;;;;;;;;;;;;;5108009;27;20006;-87
2022/06/06 02:53:36;;;;;;;;;;;;;;;;;;5112580;27;20457;-87
2022/06/06 02:56:02;;;;;;;;;;;;;;;;;;5120244;27;19923;-88
2022/06/06 02:58:28;;;;;;;;;;;;;;;;;;5110000;27;19924;-88
2022/06/06 03:00:54;;;;;;;;;;;;;;;;;;5113251;27;21116;-88
2022/06/06 03:03:20;;;;;;;;;;;;;;;;;;5110687;27;19930;-88
2022/06/06 03:05:47;;;;;;;;;;;;;;;;;;5109798;27;20007;-86
2022/06/06 03:08:13;;;;;;;;;;;;;;;;;;5108810;27;19978;-86
2022/06/06 03:10:39;;;;;;;;;;;;;;;;;;5122778;27;19923;-87
2022/06/06 03:13:05;;;;;;;;;;;;;;;;;;5104330;27;19930;-87
2022/06/06 03:15:31;;;;;;;;;;;;;;;;;;5110019;27;19958;-86
2022/06/06 03:20:49;;;;;;;;;;;;;;;;;;5126317;27;19985;-85
2022/06/06 03:23:15;;;;;;;;;;;;;;;;;;5108451;27;20400;-86
2022/06/06 03:25:42;;;;;;;;;;;;;;;;;;5111609;27;20006;-85
2022/06/06 03:28:08;;;;;;;;;;;;;;;;;;5106840;27;20255;-86
2022/06/06 03:30:34;;;;;;;;;;;;;;;;;;5119276;27;19931;-86
2022/06/06 03:33:00;;;;;;;;;;;;;;;;;;5121533;27;19950;-85
2022/06/06 03:35:26;;;;;;;;;;;;;;;;;;5125093;27;19974;-85
2022/06/06 03:37:52;;;;;;;;;;;;;;;;;;5106643;27;19924;-85
2022/06/06 03:40:18;;;;;;;;;;;;;;;;;;5106585;27;20317;-85
2022/06/06 03:42:44;;;;;;;;;;;;;;;;;;5128260;27;20026;-89
2022/06/06 03:45:10;;;;;;;;;;;;;;;;;;5118656;27;19928;-85
2022/06/06 03:47:36;;;;;;;;;;;;;;;;;;5107230;27;19923;-85
2022/06/06 03:50:02;;;;;;;;;;;;;;;;;;5120574;27;19924;-84
2022/06/06 03:52:28;;;;;;;;;;;;;;;;;;5112708;27;19939;-85
2022/06/06 03:54:54;;;;;;;;;;;;;;;;;;5108470;27;19939;-85
2022/06/06 03:57:26;;;;;;;;;;;;;;;;;;5126016;27;20380;-87
2022/06/06 03:59:52;;;;;;;;;;;;;;;;;;5110653;27;20273;-88
2022/06/06 04:02:18;;;;;;;;;;;;;;;;;;5125808;27;19956;-86
2022/06/06 04:04:44;;;;;;;;;;;;;;;;;;5122030;27;20002;-85
2022/06/06 04:07:10;;;;;;;;;;;;;;;;;;5109648;27;19924;-86
2022/06/06 04:09:36;;;;;;;;;;;;;;;;;;5113744;27;19927;-86
2022/06/06 04:12:02;;;;;;;;;;;;;;;;;;5123527;27;19978;-86
2022/06/06 04:14:28;;;;;;;;;;;;;;;;;;5108056;27;19937;-87
2022/06/06 04:16:54;;;;;;;;;;;;;;;;;;5106791;28;19959;-88
2022/06/06 04:19:20;;;;;;;;;;;;;;;;;;5105792;27;20026;-85
2022/06/06 04:21:46;;;;;;;;;;;;;;;;;;5128657;27;20026;-85
2022/06/06 04:24:12;;;;;;;;;;;;;;;;;;5112518;27;20104;-86
2022/06/06 04:26:38;;;;;;;;;;;;;;;;;;5128024;27;19924;-85
2022/06/06 04:29:04;;;;;;;;;;;;;;;;;;5104987;28;19930;-88
2022/06/06 04:31:30;;;;;;;;;;;;;;;;;;5112431;27;20304;-86
2022/06/06 04:33:56;;;;;;;;;;;;;;;;;;5132746;27;19967;-86
2022/06/06 04:36:22;;;;;;;;;;;;;;;;;;5110349;27;19927;-86
2022/06/06 04:38:48;;;;;;;;;;;;;;;;;;5110341;27;19927;-85
2022/06/06 04:41:14;;;;;;;;;;;;;;;;;;5128300;27;19924;-85
2022/06/06 04:43:40;;;;;;;;;;;;;;;;;;5128101;27;19944;-85
2022/06/06 04:46:06;;;;;;;;;;;;;;;;;;5111943;27;19924;-84
2022/06/06 04:48:32;;;;;;;;;;;;;;;;;;5127659;27;19927;-84
2022/06/06 04:50:58;;;;;;;;;;;;;;;;;;5126316;27;19931;-86
2022/06/06 04:53:24;;;;;;;;;;;;;;;;;;5114322;27;19934;-85
2022/06/06 04:55:50;;;;;;;;;;;;;;;;;;5132513;27;19927;-85
2022/06/06 04:58:16;;;;;;;;;;;;;;;;;;5127702;27;19975;-85
2022/06/06 05:00:42;;;;;;;;;;;;;;;;;;5114295;27;19930;-85
2022/06/06 05:03:08;;;;;;;;;;;;;;;;;;5109053;27;19931;-85
2022/06/06 05:05:34;;;;;;;;;;;;;;;;;;5129984;27;19923;-86
2022/06/06 05:08:01;;;;;;;;;;;;;;;;;;5131399;27;20018;-86
2022/06/06 05:10:27;;;;;;;;;;;;;;;;;;5128061;27;19932;-85
2022/06/06 05:12:53;;;;;;;;;;;;;;;;;;5111959;27;19950;-85
2022/06/06 05:15:19;;;;;;;;;;;;;;;;;;5131114;27;20288;-85
2022/06/06 05:17:45;;;;;;;;;;;;;;;;;;5114395;27;19973;-85
2022/06/06 05:20:11;;;;;;;;;;;;;;;;;;5121548;27;19931;-88
2022/06/06 05:22:37;;;;;;;;;;;;;;;;;;5129067;27;19942;-85
2022/06/06 05:25:03;;;;;;;;;;;;;;;;;;5111139;27;20018;-85
2022/06/06 05:27:29;;;;;;;;;;;;;;;;;;5112708;27;19928;-84
2022/06/06 05:29:55;;;;;;;;;;;;;;;;;;5108448;27;20431;-84
2022/06/06 05:32:21;;;;;;;;;;;;;;;;;;5125209;27;19927;-86
2022/06/06 05:34:47;;;;;;;;;;;;;;;;;;5127697;27;19949;-84
2022/06/06 05:37:15;;;;;;;;;;;;;;;;;;5113046;27;19927;-85
2022/06/06 05:39:42;;;;;;;;;;;;;;;;;;5125027;27;20015;-85
2022/06/06 05:42:08;;;;;;;;;;;;;;;;;;5111051;27;19928;-86
2022/06/06 05:44:34;;;;;;;;;;;;;;;;;;5111981;27;19931;-85
2022/06/06 05:47:00;;;;;;;;;;;;;;;;;;5109398;27;19946;-84
2022/06/06 05:49:26;;;;;;;;;;;;;;;;;;5111054;27;19923;-90
2022/06/06 05:51:52;;;;;;;;;;;;;;;;;;5110982;27;20712;-84
2022/06/06 05:54:18;;;;;;;;;;;;;;;;;;5124865;27;19930;-85
2022/06/06 05:56:44;;;;;;;;;;;;;;;;;;5120408;27;19992;-85
2022/06/06 05:59:10;;;;;;;;;;;;;;;;;;5109070;27;20021;-85
2022/06/06 06:01:36;;;;;;;;;;;;;;;;;;5114845;27;19924;-84
2022/06/06 06:04:02;;;;;;;;;;;;;;;;;;5125188;27;19938;-87
2022/06/06 06:06:28;;;;;;;;;;;;;;;;;;5123697;27;19927;-86
2022/06/06 06:08:55;;;;;;;;;;;;;;;;;;5126658;27;19930;-84
2022/06/06 06:11:21;;;;;;;;;;;;;;;;;;5110636;27;19927;-85
2022/06/06 06:13:47;;;;;;;;;;;;;;;;;;5111982;27;19931;-84
2022/06/06 06:16:14;;;;;;;;;;;;;;;;;;5113598;27;20369;-85
2022/06/06 06:18:40;;;;;;;;;;;;;;;;;;5107927;27;19924;-85
2022/06/06 06:21:06;;;;;;;;;;;;;;;;;;5126484;27;19923;-86
2022/06/06 06:23:32;;;;;;;;;;;;;;;;;;5107581;27;20014;-84
2022/06/06 06:25:58;;;;;;;;;;;;;;;;;;5115453;27;20001;-83
2022/06/06 06:28:24;;;;;;;;;;;;;;;;;;5122701;27;20326;-84
2022/06/06 06:30:50;;;;;;;;;;;;;;;;;;5107682;27;19923;-83
2022/06/06 06:33:16;;;;;;;;;;;;;;;;;;5108462;27;20017;-85
2022/06/06 06:35:42;;;;;;;;;;;;;;;;;;5128208;27;19935;-84
2022/06/06 06:38:08;;;;;;;;;;;;;;;;;;5104119;27;19931;-85
2022/06/06 06:40:34;;;;;;;;;;;;;;;;;;5108431;27;19967;-84
2022/06/06 06:43:01;;;;;;;;;;;;;;;;;;5116037;27;19970;-84
2022/06/06 06:45:27;;;;;;;;;;;;;;;;;;5109810;27;20277;-84
2022/06/06 06:47:53;;;;;;;;;;;;;;;;;;5123326;27;19939;-85
2022/06/06 06:50:19;;;;;;;;;;;;;;;;;;5106803;27;20255;-84
2022/06/06 06:52:44;;;;;;;;;;;;;;;;;;5107408;27;19930;-85
2022/06/06 06:55:10;;;;;;;;;;;;;;;;;;5109013;27;20315;-87
2022/06/06 06:57:36;;;;;;;;;;;;;;;;;;5112423;27;19924;-85
2022/06/06 07:00:02;;;;;;;;;;;;;;;;;;5108196;27;20516;-87
2022/06/06 07:10:44;;;;;;;;;;;;;;;;;;5129621;27;19924;-87
2022/06/06 07:13:10;;;;;;;;;;;;;;;;;;5112411;27;19927;-86
2022/06/06 07:15:36;;;;;;;;;;;;;;;;;;5113860;27;20014;-86
2022/06/06 07:18:03;;;;;;;;;;;;;;;;;;5125803;27;19927;-85
2022/06/06 07:20:29;;;;;;;;;;;;;;;;;;5110764;27;19970;-85
2022/06/06 07:23:04;;;;;;;;;;;;;;;;;;5113113;27;19963;-85
2022/06/06 07:25:30;;;;;;;;;;;;;;;;;;5105273;27;19972;-84
2022/06/06 07:27:56;;;;;;;;;;;;;;;;;;5108215;27;19994;-84
2022/06/06 07:30:22;;;;;;;;;;;;;;;;;;5123807;27;20018;-85
2022/06/06 07:32:48;;;;;;;;;;;;;;;;;;5126216;27;19933;-84
2022/06/06 07:35:14;;;;;;;;;;;;;;;;;;5110141;27;19976;-86
2022/06/06 07:37:41;;;;;;;;;;;;;;;;;;5108703;27;19978;-85
2022/06/06 07:40:06;;;;;;;;;;;;;;;;;;5108481;27;19923;-85
2022/06/06 07:42:32;;;;;;;;;;;;;;;;;;5109997;27;19930;-86
2022/06/06 07:44:58;;;;;;;;;;;;;;;;;;5105492;27;19928;-86
2022/06/06 07:47:24;;;;;;;;;;;;;;;;;;5109284;27;19927;-86
2022/06/06 07:49:50;;;;;;;;;;;;;;;;;;5110636;27;19923;-86
2022/06/06 07:52:16;;;;;;;;;;;;;;;;;;5124249;27;19924;-86
2022/06/06 07:54:42;;;;;;;;;;;;;;;;;;5110430;27;20369;-86
2022/06/06 07:57:08;;;;;;;;;;;;;;;;;;5109217;27;19923;-87
2022/06/06 07:59:34;;;;;;;;;;;;;;;;;;5104565;27;19967;-86
2022/06/06 08:02:03;;;;;;;;;;;;;;;;;;5108138;27;19939;-86
2022/06/06 08:04:29;;;;;;;;;;;;;;;;;;5112905;27;19924;-90
2022/06/06 08:06:55;;;;;;;;;;;;;;;;;;5112010;27;19924;-88
2022/06/06 08:09:20;;;;;;;;;;;;;;;;;;5107945;27;19967;-85
2022/06/06 08:11:46;;;;;;;;;;;;;;;;;;5112289;27;20000;-86
2022/06/06 08:14:14;;;;;;;;;;;;;;;;;;5107947;27;21530;-90
2022/06/06 08:16:40;;;;;;;;;;;;;;;;;;5107015;27;20372;-85
2022/06/06 08:19:06;;;;;;;;;;;;;;;;;;5120362;28;19973;-85
2022/06/06 08:21:33;;;;;;;;;;;;;;;;;;5107604;28;19934;-85
2022/06/06 08:23:58;;;;;;;;;;;;;;;;;;5123260;28;19927;-85
2022/06/06 08:26:24;;;;;;;;;;;;;;;;;;5123997;27;19988;-86
2022/06/06 08:28:50;;;;;;;;;;;;;;;;;;5107955;28;19930;-85
2022/06/06 08:31:16;;;;;;;;;;;;;;;;;;5123935;27;19923;-85
2022/06/06 08:33:42;;;;;;;;;;;;;;;;;;5107477;28;20006;-89
2022/06/06 08:36:14;;;;;;;;;;;;;;;;;;5116427;28;20395;-87
2022/06/06 08:38:40;;;;;;;;;;;;;;;;;;5127133;27;19923;-86
2022/06/06 08:41:06;;;;;;;;;;;;;;;;;;5116540;27;19927;-85
2022/06/06 08:43:32;;;;;;;;;;;;;;;;;;5126686;28;20355;-84
2022/06/06 08:45:58;;;;;;;;;;;;;;;;;;5122987;27;20105;-85
2022/06/06 08:48:24;;;;;;;;;;;;;;;;;;5119996;27;19919;-86
2022/06/06 08:50:50;;;;;;;;;;;;;;;;;;5106546;28;19927;-85
2022/06/06 08:53:16;;;;;;;;;;;;;;;;;;5106670;28;19929;-90
2022/06/06 08:55:42;;;;;;;;;;;;;;;;;;5144445;27;19923;-86
2022/06/06 08:58:10;;;;;;;;;;;;;;;;;;5128649;27;20381;-86
2022/06/06 09:00:36;;;;;;;;;;;;;;;;;;5109031;28;19924;-84
2022/06/06 09:03:02;;;;;;;;;;;;;;;;;;5106252;27;19930;-86
2022/06/06 09:05:28;;;;;;;;;;;;;;;;;;5125798;27;19927;-86
2022/06/06 09:07:54;;;;;;;;;;;;;;;;;;5127639;27;20369;-87
2022/06/06 09:10:25;;;;;;;;;;;;;;;;;;5110030;27;19924;-83
2022/06/06 09:12:51;;;;;;;;;;;;;;;;;;5120053;27;19950;-84
2022/06/06 09:15:18;;;;;;;;;;;;;;;;;;5126686;27;19931;-89
2022/06/06 09:17:44;;;;;;;;;;;;;;;;;;5110502;27;19991;-85
2022/06/06 09:20:10;;;;;;;;;;;;;;;;;;5113343;27;19923;-86
2022/06/06 09:22:36;;;;;;;;;;;;;;;;;;5113156;27;20014;-86
2022/06/06 09:25:02;;;;;;;;;;;;;;;;;;5107977;27;19994;-86
2022/06/06 09:27:28;;;;;;;;;;;;;;;;;;5111893;27;20910;-85
2022/06/06 09:29:54;;;;;;;;;;;;;;;;;;5128849;27;19931;-84
2022/06/06 09:32:20;;;;;;;;;;;;;;;;;;5129256;27;20014;-86
2022/06/06 09:34:46;;;;;;;;;;;;;;;;;;5110950;27;19934;-87
2022/06/06 09:37:13;;;;;;;;;;;;;;;;;;5123167;27;20338;-84
2022/06/06 09:39:38;;;;;;;;;;;;;;;;;;5111788;27;19924;-83
2022/06/06 09:42:04;;;;;;;;;;;;;;;;;;5109057;27;20002;-84
2022/06/06 09:44:30;;;;;;;;;;;;;;;;;;5114311;27;19930;-81
2022/06/06 09:46:59;;;;;;;;;;;;;;;;;;5127716;27;20361;-84
2022/06/06 09:49:25;;;;;;;;;;;;;;;;;;5129050;27;20014;-86
2022/06/06 09:51:51;;;;;;;;;;;;;;;;;;5129535;27;20090;-83
2022/06/06 09:59:46;;;;;;;;;;;;;;;;;;5128313;27;19950;-83
2022/06/06 10:02:12;;;;;;;;;;;;;;;;;;5115466;27;19969;-83
2022/06/06 10:04:38;;;;;;;;;;;;;;;;;;5117637;27;19978;-82
2022/06/06 10:07:04;;;;;;;;;;;;;;;;;;5115821;27;19978;-83
2022/06/06 10:09:30;;;;;;;;;;;;;;;;;;5116006;27;19923;-82
2022/06/06 10:11:59;;;;;;;;;;;;;;;;;;5108495;27;19976;-81
2022/06/06 10:14:25;;;;;;;;;;;;;;;;;;5102478;27;20303;-86
2022/06/06 10:16:51;;;;;;;;;;;;;;;;;;5108706;27;19919;-85
2022/06/06 10:19:20;;;;;;;;;;;;;;;;;;5107677;27;19923;-86
2022/06/06 10:21:46;;;;;;;;;;;;;;;;;;5106798;27;20431;-86
2022/06/06 10:24:12;;;;;;;;;;;;;;;;;;5099760;27;19930;-84
2022/06/06 10:26:38;;;;;;;;;;;;;;;;;;5108669;27;19928;-82
2022/06/06 10:29:04;;;;;;;;;;;;;;;;;;5112275;27;19923;-83
2022/06/06 10:31:32;;;;;;;;;;;;;;;;;;5115109;27;20255;-86
2022/06/06 10:33:58;;;;;;;;;;;;;;;;;;5101212;27;20661;-86
2022/06/06 10:36:24;;;;;;;;;;;;;;;;;;5111698;27;19930;-88
2022/06/06 10:38:50;;;;;;;;;;;;;;;;;;5110950;27;20022;-88
2022/06/06 10:41:16;;;;;;;;;;;;;;;;;;5096777;28;19975;-89
2022/06/06 10:43:42;;;;;;;;;;;;;;;;;;5101038;27;19923;-86
2022/06/06 10:46:08;;;;;;;;;;;;;;;;;;5110627;27;19923;-87
2022/06/06 10:48:34;;;;;;;;;;;;;;;;;;5113812;27;19930;-86
2022/06/06 10:53:45;;;;;;;;;;;;;;;;;;5111960;27;20378;-88
2022/06/06 10:56:11;;;;;;;;;;;;;;;;;;5113430;27;19930;-92
2022/06/06 10:58:37;;;;;;;;;;;;;;;;;;5107962;27;19923;-83
2022/06/06 11:01:03;;;;;;;;;;;;;;;;;;5105015;27;20257;-86
2022/06/06 11:03:29;;;;;;;;;;;;;;;;;;5135367;27;19923;-88
2022/06/06 11:05:55;;;;;;;;;;;;;;;;;;5130793;27;19920;-87
2022/06/06 11:08:22;;;;;;;;;;;;;;;;;;5109100;27;19949;-90
2022/06/06 11:10:48;;;;;;;;;;;;;;;;;;5095174;27;20001;-86
2022/06/06 11:13:14;;;;;;;;;;;;;;;;;;5119589;27;19930;-87
2022/06/06 11:15:41;;;;;;;;;;;;;;;;;;5124907;27;19923;-86
2022/06/06 11:18:08;;;;;;;;;;;;;;;;;;5123884;27;19924;-87
2022/06/06 11:20:33;;;;;;;;;;;;;;;;;;5122923;27;19945;-86
2022/06/06 11:22:59;;;;;;;;;;;;;;;;;;5119806;27;19924;-86
2022/06/06 11:25:26;;;;;;;;;;;;;;;;;;5101356;28;19930;-87
2022/06/06 11:27:52;;;;;;;;;;;;;;;;;;5094070;28;20282;-86
2022/06/06 11:30:24;;;;;;;;;;;;;;;;;;5131362;27;19975;-87
2022/06/06 11:32:50;;;;;;;;;;;;;;;;;;5126897;27;19926;-87
2022/06/06 11:35:16;;;;;;;;;;;;;;;;;;5108546;27;19924;-88
2022/06/06 11:37:42;;;;;;;;;;;;;;;;;;5115816;27;19946;-87
2022/06/06 11:40:08;;;;;;;;;;;;;;;;;;5112253;27;19972;-88
2022/06/06 11:42:34;;;;;;;;;;;;;;;;;;5101109;27;19923;-88
2022/06/06 11:45:00;;;;;;;;;;;;;;;;;;5111021;27;20339;-86
2022/06/06 11:47:26;;;;;;;;;;;;;;;;;;5119803;27;20026;-86
2022/06/06 11:49:52;;;;;;;;;;;;;;;;;;5111683;27;20370;-85
2022/06/06 11:52:18;;;;;;;;;;;;;;;;;;5111976;28;19928;-86
2022/06/06 11:54:44;;;;;;;;;;;;;;;;;;5114599;27;19924;-86
2022/06/06 11:57:10;;;;;;;;;;;;;;;;;;5113793;27;19924;-88
2022/06/06 11:59:36;;;;;;;;;;;;;;;;;;5132275;27;19944;-86
2022/06/06 12:02:02;;;;;;;;;;;;;;;;;;5109491;27;20380;-86
2022/06/06 12:04:28;;;;;;;;;;;;;;;;;;5111673;27;19928;-88
2022/06/06 12:06:54;;;;;;;;;;;;;;;;;;5127827;27;19955;-86
2022/06/06 12:09:20;;;;;;;;;;;;;;;;;;5094987;28;19967;-86
2022/06/06 12:11:46;;;;;;;;;;;;;;;;;;5106222;28;20014;-86
2022/06/06 12:14:14;;;;;;;;;;;;;;;;;;5111584;27;20401;-87
2022/06/06 12:16:40;;;;;;;;;;;;;;;;;;5111051;28;19931;-86
2022/06/06 12:19:06;;;;;;;;;;;;;;;;;;5111228;28;19924;-87
2022/06/06 12:21:32;;;;;;;;;;;;;;;;;;5115985;28;19928;-86
2022/06/06 12:23:58;;;;;;;;;;;;;;;;;;5122390;28;19928;-87
2022/06/06 12:26:24;;;;;;;;;;;;;;;;;;5106155;27;20470;-84
2022/06/06 12:28:50;;;;;;;;;;;;;;;;;;5110018;28;19946;-84
2022/06/06 12:31:16;;;;;;;;;;;;;;;;;;5101403;27;20013;-85
2022/06/06 12:33:42;;;;;;;;;;;;;;;;;;5122699;28;19927;-86
2022/06/06 12:36:09;;;;;;;;;;;;;;;;;;5126081;28;19920;-82
2022/06/06 12:38:35;;;;;;;;;;;;;;;;;;5128316;27;20006;-84
2022/06/06 12:41:01;;;;;;;;;;;;;;;;;;5107721;27;20022;-85
2022/06/06 12:43:27;;;;;;;;;;;;;;;;;;5135628;27;19967;-86
2022/06/06 12:45:53;;;;;;;;;;;;;;;;;;5110039;28;20032;-85
2022/06/06 12:48:19;;;;;;;;;;;;;;;;;;5118077;27;19934;-85
2022/06/06 12:50:45;;;;;;;;;;;;;;;;;;5116933;27;20334;-85
2022/06/06 12:53:11;;;;;;;;;;;;;;;;;;5120305;27;19938;-84
2022/06/06 12:55:56;;;;;;;;;;;;;;;;;;5102675;27;20002;-85
2022/06/06 12:58:22;;;;;;;;;;;;;;;;;;5103869;27;20010;-81
2022/06/06 13:03:33;;;;;;;;;;;;;;;;;;5123369;27;19930;-81
2022/06/06 13:05:59;;;;;;;;;;;;;;;;;;5126757;27;19924;-80
2022/06/06 13:08:25;;;;;;;;;;;;;;;;;;5114801;27;19963;-81
2022/06/06 13:10:51;;;;;;;;;;;;;;;;;;5134506;27;20440;-80
2022/06/06 13:13:17;;;;;;;;;;;;;;;;;;5129382;27;19927;-80
2022/06/06 13:15:43;;;;;;;;;;;;;;;;;;5119366;27;19971;-80
2022/06/06 13:18:09;;;;;;;;;;;;;;;;;;5113759;27;19962;-82
2022/06/06 13:20:35;;;;;;;;;;;;;;;;;;5143023;27;19923;-82
2022/06/06 13:23:01;;;;;;;;;;;;;;;;;;5118040;27;20002;-81
2022/06/06 13:25:27;;;;;;;;;;;;;;;;;;5130838;27;20017;-82
2022/06/06 13:27:56;;;;;;;;;;;;;;;;;;5140294;27;19934;-81
2022/06/06 13:30:22;;;;;;;;;;;;;;;;;;5097204;27;19930;-82
2022/06/06 13:32:48;;;;;;;;;;;;;;;;;;5104960;27;20149;-82
2022/06/06 13:35:14;;;;;;;;;;;;;;;;;;5120727;27;19931;-83
2022/06/06 13:37:41;;;;;;;;;;;;;;;;;;5119063;27;19973;-83
2022/06/06 13:40:07;;;;;;;;;;;;;;;;;;5110611;28;19924;-84
2022/06/06 13:42:33;;;;;;;;;;;;;;;;;;5119688;27;19947;-84
2022/06/06 13:44:58;;;;;;;;;;;;;;;;;;5112554;27;20362;-85
2022/06/06 13:47:24;;;;;;;;;;;;;;;;;;5113677;27;19924;-83
2022/06/06 13:49:50;;;;;;;;;;;;;;;;;;5114468;27;19924;-80
2022/06/06 13:52:17;;;;;;;;;;;;;;;;;;5116268;27;19924;-83
2022/06/06 13:54:43;;;;;;;;;;;;;;;;;;5097908;27;19930;-83
2022/06/06 13:57:09;;;;;;;;;;;;;;;;;;5125833;27;19927;-81
2022/06/06 13:59:34;;;;;;;;;;;;;;;;;;5102454;27;19984;-82
2022/06/06 14:02:00;;;;;;;;;;;;;;;;;;5112615;28;19924;-82
2022/06/06 14:04:26;;;;;;;;;;;;;;;;;;5112872;27;19923;-83
2022/06/06 14:06:52;;;;;;;;;;;;;;;;;;5099070;28;19924;-83
2022/06/06 14:09:19;;;;;;;;;;;;;;;;;;5126453;27;19928;-82
2022/06/06 14:11:44;;;;;;;;;;;;;;;;;;5130797;27;19933;-82
2022/06/06 14:14:11;;;;;;;;;;;;;;;;;;5097051;27;19923;-83
2022/06/06 14:16:37;;;;;;;;;;;;;;;;;;5108013;28;19947;-83
2022/06/06 14:19:03;;;;;;;;;;;;;;;;;;5127340;27;19923;-83
2022/06/06 14:21:29;;;;;;;;;;;;;;;;;;5123116;27;19927;-83
2022/06/06 14:23:55;;;;;;;;;;;;;;;;;;5098045;28;19973;-83
2022/06/06 14:26:22;;;;;;;;;;;;;;;;;;5116464;27;20008;-82
2022/06/06 14:28:48;;;;;;;;;;;;;;;;;;5112165;27;19927;-80
2022/06/06 14:31:14;;;;;;;;;;;;;;;;;;5130635;27;20038;-81
2022/06/06 14:33:40;;;;;;;;;;;;;;;;;;5121749;27;20053;-81
2022/06/06 14:36:06;;;;;;;;;;;;;;;;;;5118019;27;19924;-82
2022/06/06 14:38:33;;;;;;;;;;;;;;;;;;5108640;27;19931;-81
2022/06/06 14:41:00;;;;;;;;;;;;;;;;;;5111436;28;20350;-81
2022/06/06 14:43:26;;;;;;;;;;;;;;;;;;5113741;27;19924;-82
2022/06/06 14:45:52;;;;;;;;;;;;;;;;;;5130408;27;19930;-82
2022/06/06 14:48:17;;;;;;;;;;;;;;;;;;5117975;27;20400;-82
2022/06/06 14:50:47;;;;;;;;;;;;;;;;;;5120325;27;20393;-82
2022/06/06 14:53:13;;;;;;;;;;;;;;;;;;5108555;28;19973;-82
2022/06/06 14:55:40;;;;;;;;;;;;;;;;;;5105490;27;19935;-83
2022/06/06 14:58:05;;;;;;;;;;;;;;;;;;5126210;27;19924;-84
2022/06/06 15:00:31;;;;;;;;;;;;;;;;;;5111320;27;19938;-81
2022/06/06 15:02:57;;;;;;;;;;;;;;;;;;5111640;27;19932;-81
2022/06/06 15:05:23;;;;;;;;;;;;;;;;;;5112002;27;20050;-81
2022/06/06 15:07:51;;;;;;;;;;;;;;;;;;5122867;27;19928;-81
2022/06/06 15:10:17;;;;;;;;;;;;;;;;;;5114128;27;20382;-83
2022/06/06 15:12:43;;;;;;;;;;;;;;;;;;5134648;27;19931;-83
2022/06/06 15:15:09;;;;;;;;;;;;;;;;;;5117290;27;19924;-84
2022/06/06 15:17:35;;;;;;;;;;;;;;;;;;5121071;27;20069;-82
2022/06/06 15:20:01;;;;;;;;;;;;;;;;;;5118253;27;19923;-82
2022/06/06 15:22:27;;;;;;;;;;;;;;;;;;5124916;27;20082;-82
2022/06/06 15:24:53;;;;;;;;;;;;;;;;;;5113521;27;19930;-82
2022/06/06 15:27:19;;;;;;;;;;;;;;;;;;5120260;27;19928;-81
2022/06/06 15:29:45;;;;;;;;;;;;;;;;;;5130595;27;20274;-81
2022/06/06 15:32:11;;;;;;;;;;;;;;;;;;5119579;27;19930;-81
2022/06/06 15:34:36;;;;;;;;;;;;;;;;;;5114449;27;19989;-81
2022/06/06 15:37:02;;;;;;;;;;;;;;;;;;5110681;28;19931;-80
2022/06/06 15:39:30;;;;;;;;;;;;;;;;;;5128564;27;19951;-81
2022/06/06 15:41:56;;;;;;;;;;;;;;;;;;5111042;27;20032;-81
2022/06/06 15:44:22;;;;;;;;;;;;;;;;;;5122596;27;20382;-81
2022/06/06 15:46:48;;;;;;;;;;;;;;;;;;5129277;27;19924;-81
2022/06/06 15:49:17;;;;;;;;;;;;;;;;;;5119902;27;19943;-84
2022/06/06 15:51:43;;;;;;;;;;;;;;;;;;5112864;27;19924;-82
2022/06/06 15:54:09;;;;;;;;;;;;;;;;;;5103501;28;20028;-82
2022/06/06 15:56:35;;;;;;;;;;;;;;;;;;5111495;28;19924;-78
2022/06/06 15:59:02;;;;;;;;;;;;;;;;;;5123049;27;19945;-78
2022/06/06 16:01:28;;;;;;;;;;;;;;;;;;5129826;27;19928;-79
2022/06/06 16:03:54;;;;;;;;;;;;;;;;;;5128637;27;20281;-80
2022/06/06 16:06:20;;;;;;;;;;;;;;;;;;5113006;27;19931;-78
2022/06/06 16:08:45;;;;;;;;;;;;;;;;;;5113002;27;20415;-78
2022/06/06 16:11:11;;;;;;;;;;;;;;;;;;5112428;28;19928;-78
2022/06/06 16:13:37;;;;;;;;;;;;;;;;;;5114003;28;19973;-79
2022/06/06 16:16:03;;;;;;;;;;;;;;;;;;5123162;27;19923;-79
2022/06/06 16:18:29;;;;;;;;;;;;;;;;;;5115747;27;19923;-77
2022/06/06 16:20:56;;;;;;;;;;;;;;;;;;5111111;28;20016;-77
2022/06/06 16:23:23;;;;;;;;;;;;;;;;;;5116193;27;20037;-76
2022/06/06 16:25:49;;;;;;;;;;;;;;;;;;5125112;27;19927;-77
2022/06/06 16:28:17;;;;;;;;;;;;;;;;;;5117229;27;19924;-77
2022/06/06 16:30:43;;;;;;;;;;;;;;;;;;5117140;28;19924;-77
2022/06/06 16:33:09;;;;;;;;;;;;;;;;;;5110030;28;19924;-78
2022/06/06 16:35:35;;;;;;;;;;;;;;;;;;5119218;28;19923;-77
2022/06/06 16:38:02;;;;;;;;;;;;;;;;;;5119763;27;20008;-77
2022/06/06 16:40:28;;;;;;;;;;;;;;;;;;5138009;27;19927;-77
2022/06/06 16:48:24;;;;;;;;;;;;;;;;;;5118915;27;20044;-86
2022/06/06 16:50:50;;;;;;;;;;;;;;;;;;5109365;28;19927;-80
2022/06/06 16:53:16;;;;;;;;;;;;;;;;;;5123426;27;20490;-80
2022/06/06 16:55:42;;;;;;;;;;;;;;;;;;5125922;27;20366;-81
2022/06/06 16:58:08;;;;;;;;;;;;;;;;;;5104472;28;19931;-77
2022/06/06 17:00:34;;;;;;;;;;;;;;;;;;5110320;28;19923;-78
2022/06/06 17:03:00;;;;;;;;;;;;;;;;;;5123546;27;20086;-76
2022/06/06 17:07:45;;;;;;;;;;;;;;;;;;5110179;28;20389;-78
2022/06/06 17:08:12;;;;;;;;;;;;;;;;;;5119902;27;19969;-76
2022/06/06 17:10:38;;;;;;;;;;;;;;;;;;5113607;28;19927;-76
2022/06/06 17:13:04;;;;;;;;;;;;;;;;;;5121660;27;19963;-77